Time;durP1;ratioP1;P1;durP2;ratioP2;P2;SDS_P1;SDS_P2;PMS_P1;PMS_P2;Temp;Humidity;BMP_temperature;BMP_pressure;BME280_temperature;BME280_humidity;BME280_pressure;Samples;Min_cycle;Max_cycle;Signal;HPM_P1;HPM_P2
2022/07/11 00:01:34;;;;;;;;;;;24.00;42.90;;;;;;4983603;28;20011;-64
2022/07/11 00:03:59;;;;;;;;;;;24.00;42.90;;;;;;4980786;28;19920;-63
2022/07/11 00:06:25;;;;;;;;;;;24.00;43.00;;;;;;4983058;28;19913;-64
2022/07/11 00:08:50;;;;;;;;;;;24.00;43.00;;;;;;4982700;28;19922;-63
2022/07/11 00:11:16;;;;;;;;;;;24.00;43.00;;;;;;4982303;28;19917;-64
2022/07/11 00:13:41;;;;;;;;;;;24.00;43.00;;;;;;4980135;28;20000;-64
2022/07/11 00:16:07;;;;;;;;;;;24.00;43.00;;;;;;4981364;28;19923;-63
2022/07/11 00:18:33;;;;;;;;;;;24.00;43.10;;;;;;4981544;28;19914;-64
2022/07/11 00:20:58;;;;;;;;;;;24.00;43.10;;;;;;4980959;28;20368;-64
2022/07/11 00:23:24;;;;;;;;;;;24.00;43.10;;;;;;4982309;28;20419;-64
2022/07/11 00:25:49;;;;;;;;;;;24.00;43.10;;;;;;4980582;28;20674;-63
2022/07/11 00:28:15;;;;;;;;;;;24.00;43.10;;;;;;4981330;28;19918;-64
2022/07/11 00:30:40;;;;;;;;;;;24.00;43.10;;;;;;4980480;28;19953;-64
2022/07/11 00:33:06;;;;;;;;;;;24.00;43.20;;;;;;4979770;28;19960;-65
2022/07/11 00:35:32;;;;;;;;;;;23.90;43.10;;;;;;4983095;28;19996;-63
2022/07/11 00:37:57;;;;;;;;;;;23.90;43.10;;;;;;4979081;28;19917;-63
2022/07/11 00:40:23;;;;;;;;;;;23.90;43.20;;;;;;4979325;28;19924;-64
2022/07/11 00:42:48;;;;;;;;;;;23.90;43.20;;;;;;4981190;28;20362;-62
2022/07/11 00:45:14;;;;;;;;;;;23.90;43.20;;;;;;4980439;28;19995;-64
2022/07/11 00:47:40;;;;;;;;;;;23.90;43.20;;;;;;4981514;28;19913;-65
2022/07/11 00:50:05;;;;;;;;;;;23.90;43.20;;;;;;4980034;28;20655;-64
2022/07/11 00:52:32;;;;;;;;;;;23.90;43.20;;;;;;4981552;28;19947;-64
2022/07/11 00:54:57;;;;;;;;;;;23.90;43.20;;;;;;4979108;28;19913;-64
2022/07/11 00:57:23;;;;;;;;;;;23.90;43.30;;;;;;4978995;28;19913;-64
2022/07/11 00:59:49;;;;;;;;;;;23.90;43.20;;;;;;4981134;28;20677;-64
2022/07/11 01:02:14;;;;;;;;;;;23.90;43.20;;;;;;4982004;28;19917;-64
2022/07/11 01:04:40;;;;;;;;;;;23.90;43.30;;;;;;4980757;28;19913;-63
2022/07/11 01:07:06;;;;;;;;;;;23.90;43.30;;;;;;4978818;28;19943;-64
2022/07/11 01:09:32;;;;;;;;;;;23.90;43.30;;;;;;4978785;28;20799;-64
2022/07/11 01:11:58;;;;;;;;;;;23.90;43.30;;;;;;4980973;28;19913;-64
2022/07/11 01:14:23;;;;;;;;;;;23.90;43.40;;;;;;4980580;28;19960;-64
2022/07/11 01:16:51;;;;;;;;;;;23.90;43.40;;;;;;4981044;28;19936;-64
2022/07/11 01:19:17;;;;;;;;;;;23.90;43.40;;;;;;4979548;28;20752;-63
2022/07/11 01:21:45;;;;;;;;;;;23.90;43.40;;;;;;4977947;28;19913;-63
2022/07/11 01:24:11;;;;;;;;;;;23.90;43.40;;;;;;4980206;28;19935;-64
2022/07/11 01:26:37;;;;;;;;;;;23.90;43.40;;;;;;4978457;28;19955;-63
2022/07/11 01:29:05;;;;;;;;;;;23.90;43.40;;;;;;4980392;28;19924;-65
2022/07/11 01:31:31;;;;;;;;;;;23.90;43.50;;;;;;4979749;28;19924;-64
2022/07/11 01:33:57;;;;;;;;;;;23.90;43.40;;;;;;4980352;28;19918;-64
2022/07/11 01:36:22;;;;;;;;;;;23.90;43.50;;;;;;4978433;28;19914;-63
2022/07/11 01:38:48;;;;;;;;;;;23.80;43.40;;;;;;4979728;28;19949;-63
2022/07/11 01:41:13;;;;;;;;;;;23.90;43.50;;;;;;4977647;28;19914;-63
2022/07/11 01:43:39;;;;;;;;;;;23.80;43.50;;;;;;4980835;28;19914;-63
2022/07/11 01:46:05;;;;;;;;;;;23.80;43.50;;;;;;4980038;28;19913;-63
2022/07/11 01:48:30;;;;;;;;;;;23.80;43.50;;;;;;4980555;28;19919;-63
2022/07/11 01:50:56;;;;;;;;;;;23.90;43.50;;;;;;4981046;28;20655;-62
2022/07/11 01:53:22;;;;;;;;;;;23.80;43.50;;;;;;4980319;28;19985;-63
2022/07/11 01:55:47;;;;;;;;;;;23.80;43.50;;;;;;4979560;28;19966;-62
2022/07/11 01:58:13;;;;;;;;;;;23.80;43.50;;;;;;4980127;28;19913;-63
2022/07/11 02:00:38;;;;;;;;;;;23.80;43.50;;;;;;4980515;28;20083;-63
2022/07/11 02:03:04;;;;;;;;;;;23.80;43.50;;;;;;4982208;28;20366;-63
2022/07/11 02:05:29;;;;;;;;;;;23.80;43.50;;;;;;4979220;28;19924;-63
2022/07/11 02:08:13;;;;;;;;;;;23.80;43.50;;;;;;4979576;28;19913;-63
2022/07/11 02:10:39;;;;;;;;;;;23.80;43.60;;;;;;4977670;28;19972;-64
2022/07/11 02:13:04;;;;;;;;;;;23.80;43.60;;;;;;4980739;28;19913;-63
2022/07/11 02:15:30;;;;;;;;;;;23.80;43.60;;;;;;4978470;28;19914;-63
2022/07/11 02:17:56;;;;;;;;;;;23.80;43.60;;;;;;4980628;28;20638;-63
2022/07/11 02:20:22;;;;;;;;;;;23.80;43.70;;;;;;4977253;28;19916;-63
2022/07/11 02:22:50;;;;;;;;;;;23.80;43.60;;;;;;4980491;28;20506;-64
2022/07/11 02:25:16;;;;;;;;;;;23.80;43.70;;;;;;4979373;28;20008;-63
2022/07/11 02:27:42;;;;;;;;;;;23.80;43.70;;;;;;4979960;28;19917;-64
2022/07/11 02:30:07;;;;;;;;;;;23.80;43.70;;;;;;4977501;28;19909;-64
2022/07/11 02:32:33;;;;;;;;;;;23.80;43.70;;;;;;4981287;28;19912;-64
2022/07/11 02:34:59;;;;;;;;;;;23.70;43.60;;;;;;4978408;28;20719;-64
2022/07/11 02:37:25;;;;;;;;;;;23.80;43.70;;;;;;4978953;28;20622;-64
2022/07/11 02:39:51;;;;;;;;;;;23.70;43.70;;;;;;4978512;28;19924;-64
2022/07/11 02:42:16;;;;;;;;;;;23.70;43.70;;;;;;4978123;28;19965;-63
2022/07/11 02:44:42;;;;;;;;;;;23.70;43.70;;;;;;4979387;28;19917;-64
2022/07/11 02:47:07;;;;;;;;;;;23.70;43.70;;;;;;4980462;28;19914;-64
2022/07/11 02:49:33;;;;;;;;;;;23.70;43.70;;;;;;4978834;28;19917;-64
2022/07/11 02:51:58;;;;;;;;;;;23.70;43.70;;;;;;4983881;28;20427;-64
2022/07/11 02:54:24;;;;;;;;;;;23.70;43.70;;;;;;4982987;28;19914;-64
2022/07/11 02:56:50;;;;;;;;;;;23.70;43.80;;;;;;4983493;28;20070;-64
2022/07/11 02:59:15;;;;;;;;;;;23.70;43.80;;;;;;4982269;28;19968;-63
2022/07/11 03:01:41;;;;;;;;;;;23.70;43.80;;;;;;4982223;28;19919;-64
2022/07/11 03:04:07;;;;;;;;;;;23.70;43.80;;;;;;4982987;28;20024;-64
2022/07/11 03:06:32;;;;;;;;;;;23.70;43.80;;;;;;4981091;28;19917;-65
2022/07/11 03:08:58;;;;;;;;;;;23.70;43.90;;;;;;4981194;28;20010;-65
2022/07/11 03:11:23;;;;;;;;;;;23.70;43.80;;;;;;4982890;28;19913;-63
2022/07/11 03:13:49;;;;;;;;;;;23.70;43.90;;;;;;4983292;28;20309;-64
2022/07/11 03:16:14;;;;;;;;;;;23.70;43.90;;;;;;4982940;28;19913;-63
2022/07/11 03:18:40;;;;;;;;;;;23.70;43.90;;;;;;4982251;28;19917;-64
2022/07/11 03:21:05;;;;;;;;;;;23.70;43.90;;;;;;4982683;28;20057;-63
2022/07/11 03:23:31;;;;;;;;;;;23.70;43.90;;;;;;4981416;28;19920;-65
2022/07/11 03:25:56;;;;;;;;;;;23.70;44.00;;;;;;4984559;28;19924;-64
2022/07/11 03:28:22;;;;;;;;;;;23.70;44.00;;;;;;4982179;28;20435;-64
2022/07/11 03:30:47;;;;;;;;;;;23.70;44.00;;;;;;4978450;28;20001;-64
2022/07/11 03:33:12;;;;;;;;;;;23.70;44.00;;;;;;4982669;28;20048;-64
2022/07/11 03:35:41;;;;;;;;;;;23.60;44.00;;;;;;4979324;28;19913;-64
2022/07/11 03:38:06;;;;;;;;;;;23.70;44.00;;;;;;4979086;28;19968;-64
2022/07/11 03:40:32;;;;;;;;;;;23.60;44.00;;;;;;4995402;28;19962;-64
2022/07/11 03:42:58;;;;;;;;;;;23.60;44.00;;;;;;4982841;28;19921;-64
2022/07/11 03:45:23;;;;;;;;;;;23.60;44.00;;;;;;4981548;28;19967;-62
2022/07/11 03:47:49;;;;;;;;;;;23.60;44.00;;;;;;4980652;28;20706;-64
2022/07/11 03:50:14;;;;;;;;;;;23.70;44.10;;;;;;4978417;28;19913;-64
2022/07/11 03:52:40;;;;;;;;;;;23.60;44.60;;;;;;4977867;28;20552;-65
2022/07/11 03:55:07;;;;;;;;;;;23.60;44.10;;;;;;4978318;28;19917;-64
2022/07/11 03:57:33;;;;;;;;;;;23.60;44.00;;;;;;4980113;28;19917;-64
2022/07/11 03:59:59;;;;;;;;;;;23.60;44.10;;;;;;4980883;28;19921;-64
2022/07/11 04:02:24;;;;;;;;;;;23.60;44.10;;;;;;4981611;28;20391;-63
2022/07/11 04:04:50;;;;;;;;;;;23.60;44.10;;;;;;4981881;28;19920;-64
2022/07/11 04:07:15;;;;;;;;;;;23.60;44.10;;;;;;4980682;28;19917;-64
2022/07/11 04:09:41;;;;;;;;;;;23.60;44.10;;;;;;4980700;28;20042;-64
2022/07/11 04:12:07;;;;;;;;;;;23.60;44.10;;;;;;4982241;28;19913;-63
2022/07/11 04:14:32;;;;;;;;;;;23.60;44.20;;;;;;4982158;28;19987;-65
2022/07/11 04:16:58;;;;;;;;;;;23.60;44.10;;;;;;4981463;28;20070;-63
2022/07/11 04:19:23;;;;;;;;;;;23.60;44.20;;;;;;4981393;28;19917;-63
2022/07/11 04:21:49;;;;;;;;;;;23.60;44.10;;;;;;4979628;28;20004;-63
2022/07/11 04:24:14;;;;;;;;;;;23.60;44.20;;;;;;4978847;28;19920;-65
2022/07/11 04:26:40;;;;;;;;;;;23.60;44.20;;;;;;4979601;28;19924;-63
2022/07/11 04:29:06;;;;;;;;;;;23.60;44.20;;;;;;4980326;28;19995;-63
2022/07/11 04:31:31;;;;;;;;;;;23.60;44.20;;;;;;4976389;28;19918;-63
2022/07/11 04:33:57;;;;;;;;;;;23.60;44.20;;;;;;4980361;28;20711;-64
2022/07/11 04:36:22;;;;;;;;;;;23.60;44.30;;;;;;4978577;28;19910;-65
2022/07/11 04:38:49;;;;;;;;;;;23.60;44.30;;;;;;4979474;28;19920;-64
2022/07/11 04:41:15;;;;;;;;;;;23.60;44.30;;;;;;4981126;28;19952;-64
2022/07/11 04:43:40;;;;;;;;;;;23.60;44.30;;;;;;4980210;28;19913;-64
2022/07/11 04:46:06;;;;;;;;;;;23.60;44.30;;;;;;4978998;28;20993;-64
2022/07/11 04:48:31;;;;;;;;;;;23.60;44.30;;;;;;4978132;28;20047;-63
2022/07/11 04:50:57;;;;;;;;;;;23.60;44.40;;;;;;4978502;28;19918;-63
2022/07/11 04:53:23;;;;;;;;;;;23.60;44.40;;;;;;4976992;28;20020;-64
2022/07/11 04:55:49;;;;;;;;;;;23.60;44.40;;;;;;4975007;28;19914;-64
2022/07/11 04:58:14;;;;;;;;;;;23.60;45.00;;;;;;4978217;28;19917;-63
2022/07/11 05:00:40;;;;;;;;;;;23.60;44.50;;;;;;4980009;28;19932;-64
2022/07/11 05:03:05;;;;;;;;;;;23.60;44.40;;;;;;4980614;28;19939;-64
2022/07/11 05:05:31;;;;;;;;;;;23.60;44.50;;;;;;4979796;28;19924;-63
2022/07/11 05:07:56;;;;;;;;;;;23.60;44.40;;;;;;4976778;28;19996;-64
2022/07/11 05:10:22;;;;;;;;;;;23.50;44.40;;;;;;4979378;28;19913;-63
2022/07/11 05:12:47;;;;;;;;;;;23.60;44.50;;;;;;4976147;28;19914;-64
2022/07/11 05:15:13;;;;;;;;;;;23.60;44.50;;;;;;4979857;28;19985;-63
2022/07/11 05:17:38;;;;;;;;;;;23.50;44.40;;;;;;4983713;28;20601;-64
2022/07/11 05:20:04;;;;;;;;;;;23.60;44.40;;;;;;4981716;28;19929;-64
2022/07/11 05:22:30;;;;;;;;;;;23.60;44.40;;;;;;4977820;28;20344;-64
2022/07/11 05:24:55;;;;;;;;;;;23.60;44.50;;;;;;4979733;28;19913;-63
2022/07/11 05:27:21;;;;;;;;;;;23.50;44.40;;;;;;4977557;28;20056;-63
2022/07/11 05:29:46;;;;;;;;;;;23.60;44.50;;;;;;4975396;28;19944;-63
2022/07/11 05:32:12;;;;;;;;;;;23.60;44.70;;;;;;4979301;28;19918;-64
2022/07/11 05:34:38;;;;;;;;;;;23.60;44.60;;;;;;4978730;28;19913;-63
2022/07/11 05:37:03;;;;;;;;;;;23.60;44.50;;;;;;4978728;28;19918;-64
2022/07/11 05:39:29;;;;;;;;;;;23.60;44.40;;;;;;4980270;28;20611;-64
2022/07/11 05:41:55;;;;;;;;;;;23.70;44.40;;;;;;4981607;28;19920;-64
2022/07/11 05:44:20;;;;;;;;;;;23.70;44.50;;;;;;4979624;28;19924;-63
2022/07/11 05:46:46;;;;;;;;;;;23.70;44.40;;;;;;4980025;28;19987;-64
2022/07/11 05:49:12;;;;;;;;;;;23.70;44.30;;;;;;4979529;28;19996;-64
2022/07/11 05:51:38;;;;;;;;;;;23.70;44.20;;;;;;4978314;28;19920;-64
2022/07/11 05:54:04;;;;;;;;;;;23.80;44.20;;;;;;4979398;28;19917;-63
2022/07/11 05:56:29;;;;;;;;;;;23.80;44.10;;;;;;4981763;28;19968;-64
2022/07/11 05:58:55;;;;;;;;;;;23.90;44.00;;;;;;4979583;28;20040;-64
2022/07/11 06:01:21;;;;;;;;;;;23.90;44.00;;;;;;4980222;28;19924;-64
2022/07/11 06:03:46;;;;;;;;;;;23.90;44.00;;;;;;4977865;28;19917;-63
2022/07/11 06:06:12;;;;;;;;;;;23.90;43.90;;;;;;4978888;28;19947;-63
2022/07/11 06:08:40;;;;;;;;;;;24.00;43.90;;;;;;4978659;28;19921;-64
2022/07/11 06:11:06;;;;;;;;;;;24.00;43.90;;;;;;4980408;28;20083;-62
2022/07/11 06:13:31;;;;;;;;;;;24.10;43.90;;;;;;4977006;28;19913;-64
2022/07/11 06:15:57;;;;;;;;;;;24.10;43.90;;;;;;4981093;28;19918;-64
2022/07/11 06:18:23;;;;;;;;;;;24.10;44.10;;;;;;4980812;28;20103;-64
2022/07/11 06:20:49;;;;;;;;;;;24.10;43.80;;;;;;4981664;28;19917;-64
2022/07/11 06:23:14;;;;;;;;;;;24.20;43.70;;;;;;4978657;28;19948;-64
2022/07/11 06:25:40;;;;;;;;;;;24.30;43.50;;;;;;4979802;28;20721;-64
2022/07/11 06:28:05;;;;;;;;;;;24.50;43.40;;;;;;4985139;28;19971;-63
2022/07/11 06:30:31;;;;;;;;;;;24.60;43.30;;;;;;4987553;28;19917;-64
2022/07/11 06:32:57;;;;;;;;;;;24.70;43.10;;;;;;5001159;28;19917;-64
2022/07/11 06:35:22;;;;;;;;;;;24.80;42.90;;;;;;4999887;28;20364;-64
2022/07/11 06:37:48;;;;;;;;;;;24.80;42.80;;;;;;5017241;28;20104;-64
2022/07/11 06:40:17;;;;;;;;;;;24.90;42.80;;;;;;5001286;28;19917;-64
2022/07/11 06:42:43;;;;;;;;;;;25.00;42.80;;;;;;5003008;28;20616;-65
2022/07/11 06:45:08;;;;;;;;;;;25.10;42.70;;;;;;5003502;28;20421;-65
2022/07/11 06:47:34;;;;;;;;;;;25.10;42.60;;;;;;5003283;28;20012;-64
2022/07/11 06:50:00;;;;;;;;;;;25.10;42.50;;;;;;5003000;28;19913;-64
2022/07/11 06:52:25;;;;;;;;;;;25.20;42.40;;;;;;4999598;28;19983;-65
2022/07/11 06:54:50;;;;;;;;;;;25.30;42.40;;;;;;5001417;28;19939;-64
2022/07/11 06:57:16;;;;;;;;;;;25.40;42.30;;;;;;5002193;28;19917;-65
2022/07/11 06:59:41;;;;;;;;;;;25.40;42.30;;;;;;5001495;28;20011;-64
2022/07/11 07:02:07;;;;;;;;;;;25.40;42.40;;;;;;5002716;28;20000;-64
2022/07/11 07:04:33;;;;;;;;;;;25.30;42.30;;;;;;5020747;28;20344;-63
2022/07/11 07:07:00;;;;;;;;;;;25.40;42.50;;;;;;5016056;28;19913;-64
2022/07/11 07:09:26;;;;;;;;;;;25.40;42.50;;;;;;5020541;28;19984;-64
2022/07/11 07:11:52;;;;;;;;;;;25.40;42.40;;;;;;5021753;28;19913;-64
2022/07/11 07:14:17;;;;;;;;;;;25.40;42.40;;;;;;5015592;28;20576;-64
2022/07/11 07:16:43;;;;;;;;;;;25.40;42.30;;;;;;5014643;28;20305;-65
2022/07/11 07:19:08;;;;;;;;;;;25.40;42.30;;;;;;5017500;28;19913;-64
2022/07/11 07:21:34;;;;;;;;;;;25.40;42.20;;;;;;5017333;28;19923;-64
2022/07/11 07:23:59;;;;;;;;;;;25.40;42.20;;;;;;5022406;28;20684;-64
2022/07/11 07:26:25;;;;;;;;;;;25.40;42.20;;;;;;5021065;28;20233;-64
2022/07/11 07:28:50;;;;;;;;;;;25.50;42.20;;;;;;5002978;28;20099;-64
2022/07/11 07:31:16;;;;;;;;;;;25.50;42.20;;;;;;5003397;28;19917;-63
2022/07/11 07:33:41;;;;;;;;;;;25.50;42.20;;;;;;5003675;28;20696;-63
2022/07/11 07:36:07;;;;;;;;;;;25.50;42.20;;;;;;5001085;28;19917;-63
2022/07/11 07:38:32;;;;;;;;;;;25.50;42.20;;;;;;4999727;28;19921;-63
2022/07/11 07:40:58;;;;;;;;;;;25.50;42.20;;;;;;5002127;28;19939;-64
2022/07/11 07:43:23;;;;;;;;;;;25.50;42.20;;;;;;5003400;28;19913;-65
2022/07/11 07:45:49;;;;;;;;;;;25.50;42.20;;;;;;5003520;28;19996;-63
2022/07/11 07:48:14;;;;;;;;;;;25.50;42.10;;;;;;5002611;28;20006;-63
2022/07/11 07:50:41;;;;;;;;;;;25.50;42.10;;;;;;5000392;28;20016;-64
2022/07/11 07:53:07;;;;;;;;;;;25.50;42.10;;;;;;5001197;28;19920;-64
2022/07/11 07:55:33;;;;;;;;;;;25.50;42.10;;;;;;5000428;28;19920;-64
2022/07/11 07:57:58;;;;;;;;;;;25.50;42.10;;;;;;5002748;28;19920;-63
2022/07/11 08:03:08;;;;;;;;;;;25.50;42.10;;;;;;5001261;28;20532;-63
2022/07/11 08:05:34;;;;;;;;;;;25.60;42.20;;;;;;5001242;28;19952;-64
2022/07/11 08:08:00;;;;;;;;;;;25.60;42.10;;;;;;5000469;28;19913;-63
2022/07/11 08:10:25;;;;;;;;;;;25.60;42.20;;;;;;5000289;28;20442;-63
2022/07/11 08:12:51;;;;;;;;;;;25.60;42.20;;;;;;5002764;28;19920;-64
2022/07/11 08:15:16;;;;;;;;;;;25.60;42.10;;;;;;4999937;28;19917;-63
2022/07/11 08:17:42;;;;;;;;;;;25.60;42.20;;;;;;4999908;28;19955;-64
2022/07/11 08:20:08;;;;;;;;;;;25.60;42.20;;;;;;5000053;28;19916;-65
2022/07/11 08:22:33;;;;;;;;;;;25.60;42.10;;;;;;4998395;28;19913;-64
2022/07/11 08:24:59;;;;;;;;;;;25.60;42.20;;;;;;4998071;28;20086;-64
2022/07/11 08:27:25;;;;;;;;;;;25.60;42.20;;;;;;5001187;28;20679;-64
2022/07/11 08:29:50;;;;;;;;;;;25.60;42.20;;;;;;4998678;28;19944;-63
2022/07/11 08:32:16;;;;;;;;;;;25.60;42.20;;;;;;5001169;28;19983;-63
2022/07/11 08:34:41;;;;;;;;;;;25.70;42.20;;;;;;5001454;28;20687;-64
2022/07/11 08:37:06;;;;;;;;;;;25.60;42.20;;;;;;4999258;28;19923;-64
2022/07/11 08:39:32;;;;;;;;;;;25.60;42.50;;;;;;5002322;28;20702;-64
2022/07/11 08:41:57;;;;;;;;;;;25.60;43.40;;;;;;5000376;28;19913;-64
2022/07/11 08:44:24;;;;;;;;;;;25.60;42.70;;;;;;4997608;28;19967;-63
2022/07/11 08:46:50;;;;;;;;;;;25.60;42.90;;;;;;5001052;28;19928;-64
2022/07/11 08:49:15;;;;;;;;;;;25.60;43.00;;;;;;5003729;28;19924;-64
2022/07/11 08:51:41;;;;;;;;;;;25.60;43.10;;;;;;5005609;28;19913;-63
2022/07/11 08:54:06;;;;;;;;;;;25.60;43.10;;;;;;5000483;28;19961;-62
2022/07/11 08:56:32;;;;;;;;;;;25.60;43.10;;;;;;5006884;28;20355;-63
2022/07/11 08:58:59;;;;;;;;;;;25.60;43.40;;;;;;5002008;28;19913;-63
2022/07/11 09:01:32;;;;;;;;;;;25.70;43.20;;;;;;5007129;28;19981;-63
2022/07/11 09:03:59;;;;;;;;;;;25.70;43.00;;;;;;4998244;28;20205;-64
2022/07/11 09:06:24;;;;;;;;;;;25.70;42.90;;;;;;5001552;28;20015;-61
2022/07/11 09:08:49;;;;;;;;;;;25.70;42.80;;;;;;5003765;28;19919;-64
2022/07/11 09:11:20;;;;;;;;;;;25.70;43.00;;;;;;4999560;28;20878;-64
2022/07/11 09:13:46;;;;;;;;;;;25.70;43.60;;;;;;5008521;28;20027;-63
2022/07/11 09:16:11;;;;;;;;;;;25.70;43.50;;;;;;4999918;28;19913;-63
2022/07/11 09:18:38;;;;;;;;;;;25.70;43.30;;;;;;5015426;28;19924;-62
2022/07/11 09:26:36;;;;;;;;;;;25.70;43.70;;;;;;5003903;28;19920;-62
2022/07/11 09:29:03;;;;;;;;;;;25.70;43.50;;;;;;4998597;28;19913;-62
2022/07/11 09:31:30;;;;;;;;;;;25.80;43.60;;;;;;5007819;28;21123;-62
2022/07/11 09:34:12;;;;;;;;;;;25.80;43.40;;;;;;5010208;28;19999;-63
2022/07/11 09:36:37;;;;;;;;;;;25.80;43.30;;;;;;5001645;28;19923;-63
2022/07/11 09:39:04;;;;;;;;;;;25.80;43.30;;;;;;4997581;28;19913;-63
2022/07/11 09:41:38;;;;;;;;;;;25.80;43.60;;;;;;5015037;28;20248;-63
2022/07/11 09:44:15;;;;;;;;;;;25.80;43.50;;;;;;5013423;28;20004;-62
2022/07/11 09:46:41;;;;;;;;;;;25.80;43.30;;;;;;5006385;28;19924;-63
2022/07/11 09:49:07;;;;;;;;;;;25.80;43.50;;;;;;5001099;28;20806;-63
2022/07/11 09:51:33;;;;;;;;;;;25.80;43.60;;;;;;5005082;28;20023;-61
2022/07/11 09:53:59;;;;;;;;;;;25.80;43.50;;;;;;5010968;28;19917;-62
2022/07/11 09:56:25;;;;;;;;;;;25.90;43.50;;;;;;5011309;28;19970;-62
2022/07/11 09:59:04;;;;;;;;;;;25.90;43.30;;;;;;5015737;28;19917;-62
2022/07/11 10:01:30;;;;;;;;;;;25.90;43.30;;;;;;5006904;28;19928;-61
2022/07/11 10:03:55;;;;;;;;;;;25.90;43.40;;;;;;5002863;28;19957;-62
2022/07/11 10:06:22;;;;;;;;;;;25.90;43.50;;;;;;5004015;28;19959;-63
2022/07/11 10:08:48;;;;;;;;;;;25.90;43.60;;;;;;5009851;28;21053;-63
2022/07/11 10:11:13;;;;;;;;;;;25.90;43.70;;;;;;5015054;28;20280;-62
2022/07/11 10:13:39;;;;;;;;;;;25.90;43.50;;;;;;5016144;28;19966;-63
2022/07/11 10:16:11;;;;;;;;;;;25.90;43.50;;;;;;5003899;28;19924;-63
2022/07/11 10:18:41;;;;;;;;;;;25.90;43.50;;;;;;5001578;28;19933;-63
2022/07/11 10:21:09;;;;;;;;;;;25.90;43.50;;;;;;5002531;28;19921;-64
2022/07/11 10:23:59;;;;;;;;;;;25.90;43.50;;;;;;5001919;28;19944;-62
2022/07/11 10:26:30;;;;;;;;;;;25.90;43.40;;;;;;5001027;28;19939;-63
2022/07/11 10:28:55;;;;;;;;;;;25.90;43.40;;;;;;5004658;28;19919;-62
2022/07/11 10:31:22;;;;;;;;;;;25.90;43.40;;;;;;5004534;28;19917;-62
2022/07/11 10:34:06;;;;;;;;;;;25.90;43.50;;;;;;5003953;28;19916;-63
2022/07/11 10:36:33;;;;;;;;;;;25.90;43.40;;;;;;5000931;28;20095;-63
2022/07/11 10:39:18;;;;;;;;;;;25.80;43.40;;;;;;5003158;28;20044;-63
2022/07/11 10:41:44;;;;;;;;;;;25.80;43.30;;;;;;5004822;28;19992;-61
2022/07/11 10:44:09;;;;;;;;;;;25.80;43.30;;;;;;5004641;28;19919;-62
2022/07/11 10:46:35;;;;;;;;;;;25.80;43.30;;;;;;4999538;28;19956;-64
2022/07/11 10:49:01;;;;;;;;;;;25.80;43.30;;;;;;5002685;28;19913;-62
2022/07/11 10:51:29;;;;;;;;;;;25.80;43.40;;;;;;5000052;28;19981;-63
2022/07/11 10:53:56;;;;;;;;;;;25.80;43.30;;;;;;5003105;28;19909;-61
2022/07/11 10:56:37;;;;;;;;;;;25.80;43.30;;;;;;5001194;28;21107;-61
2022/07/11 10:59:14;;;;;;;;;;;25.80;43.40;;;;;;5002372;28;20644;-62
2022/07/11 11:01:58;;;;;;;;;;;25.80;43.80;;;;;;5001467;28;19917;-61
2022/07/11 11:04:42;;;;;;;;;;;25.80;43.50;;;;;;5002625;28;19917;-62
2022/07/11 11:07:26;;;;;;;;;;;25.80;43.40;;;;;;5000885;28;19919;-63
2022/07/11 11:09:52;;;;;;;;;;;25.80;43.40;;;;;;4997541;28;19912;-63
2022/07/11 11:12:17;;;;;;;;;;;25.90;43.40;;;;;;5001556;28;20392;-62
2022/07/11 11:14:43;;;;;;;;;;;25.90;43.40;;;;;;5002598;28;20659;-63
2022/07/11 11:17:47;;;;;;;;;;;25.90;43.50;;;;;;4998392;28;19912;-62
2022/07/11 11:20:30;;;;;;;;;;;25.90;43.50;;;;;;4944878;28;20326;-63
2022/07/11 11:23:09;;;;;;;;;;;25.90;43.50;;;;;;4947662;28;19921;-63
2022/07/11 11:25:34;;;;;;;;;;;25.90;43.50;;;;;;4982079;28;19912;-63
2022/07/11 11:28:02;;;;;;;;;;;25.90;43.40;;;;;;4998392;28;20498;-64
2022/07/11 11:30:27;;;;;;;;;;;25.90;43.50;;;;;;4997312;28;20062;-63
2022/07/11 11:32:53;;;;;;;;;;;25.90;43.50;;;;;;5000562;28;20622;-63
2022/07/11 11:35:18;;;;;;;;;;;25.90;43.50;;;;;;5000464;28;19913;-62
2022/07/11 11:37:44;;;;;;;;;;;25.90;43.50;;;;;;4999325;28;20036;-63
2022/07/11 11:40:09;;;;;;;;;;;26.00;43.70;;;;;;4999353;28;19917;-62
2022/07/11 11:42:35;;;;;;;;;;;26.00;43.70;;;;;;5001918;28;20028;-63
2022/07/11 11:45:05;;;;;;;;;;;26.00;43.60;;;;;;5000987;28;19912;-64
2022/07/11 11:47:31;;;;;;;;;;;25.90;43.50;;;;;;5000668;28;19912;-64
2022/07/11 11:49:57;;;;;;;;;;;26.00;43.70;;;;;;4998550;28;21510;-65
2022/07/11 11:52:24;;;;;;;;;;;26.00;43.60;;;;;;5001559;28;19951;-64
2022/07/11 11:54:53;;;;;;;;;;;26.00;43.60;;;;;;4999461;28;19913;-63
2022/07/11 11:57:20;;;;;;;;;;;26.00;43.70;;;;;;4999270;28;19909;-63
2022/07/11 11:59:46;;;;;;;;;;;26.00;43.60;;;;;;4999345;28;19921;-63
2022/07/11 12:02:11;;;;;;;;;;;26.00;43.70;;;;;;5000242;28;19956;-64
2022/07/11 12:04:37;;;;;;;;;;;26.00;43.70;;;;;;5000779;28;20006;-62
2022/07/11 12:07:03;;;;;;;;;;;26.00;43.80;;;;;;4998657;28;19917;-64
2022/07/11 12:09:50;;;;;;;;;;;26.00;43.70;;;;;;4996389;28;19975;-64
2022/07/11 12:12:43;;;;;;;;;;;26.00;43.90;;;;;;5003793;28;20024;-62
2022/07/11 12:15:31;;;;;;;;;;;26.00;44.00;;;;;;5001555;28;20356;-63
2022/07/11 12:17:59;;;;;;;;;;;26.00;44.00;;;;;;4999652;28;19912;-63
2022/07/11 12:20:34;;;;;;;;;;;26.10;43.90;;;;;;5004888;28;19955;-64
2022/07/11 12:23:00;;;;;;;;;;;26.00;44.00;;;;;;4996919;28;19959;-64
2022/07/11 12:25:26;;;;;;;;;;;26.10;44.10;;;;;;5004915;28;20751;-63
2022/07/11 12:27:57;;;;;;;;;;;26.10;44.20;;;;;;5009127;28;19928;-62
2022/07/11 12:30:23;;;;;;;;;;;26.10;44.10;;;;;;5010648;28;19924;-63
2022/07/11 12:33:02;;;;;;;;;;;26.10;44.10;;;;;;5010274;28;19999;-64
2022/07/11 12:35:28;;;;;;;;;;;26.10;44.20;;;;;;5013973;28;19923;-63
2022/07/11 12:37:54;;;;;;;;;;;26.10;44.00;;;;;;5005645;28;19923;-64
2022/07/11 12:40:20;;;;;;;;;;;26.20;44.00;;;;;;5010429;28;20365;-63
2022/07/11 12:42:46;;;;;;;;;;;26.10;44.10;;;;;;4996399;28;19933;-61
2022/07/11 12:45:12;;;;;;;;;;;26.20;44.30;;;;;;5002313;28;19913;-64
2022/07/11 12:47:39;;;;;;;;;;;26.20;44.50;;;;;;5004807;28;19923;-64
2022/07/11 12:50:14;;;;;;;;;;;26.20;44.50;;;;;;4993946;28;19924;-64
2022/07/11 12:52:41;;;;;;;;;;;26.20;44.30;;;;;;4998571;28;19917;-64
2022/07/11 12:55:12;;;;;;;;;;;26.20;44.20;;;;;;4997794;28;19921;-64
2022/07/11 12:57:38;;;;;;;;;;;26.20;44.10;;;;;;5001517;28;20008;-64
2022/07/11 13:00:13;;;;;;;;;;;26.20;44.20;;;;;;5001747;28;19959;-63
2022/07/11 13:02:39;;;;;;;;;;;26.20;44.40;;;;;;4995460;28;20349;-63
2022/07/11 13:05:04;;;;;;;;;;;26.20;44.80;;;;;;5000181;28;19920;-63
2022/07/11 13:10:19;;;;;;;;;;;26.20;44.40;;;;;;5000890;28;19964;-63
2022/07/11 13:12:46;;;;;;;;;;;26.20;44.20;;;;;;4998727;28;19959;-63
2022/07/11 13:15:13;;;;;;;;;;;26.30;44.30;;;;;;5000916;28;19917;-64
2022/07/11 13:17:41;;;;;;;;;;;26.20;44.20;;;;;;4997627;28;19917;-64
2022/07/11 13:20:08;;;;;;;;;;;26.30;44.40;;;;;;5000033;28;19923;-62
2022/07/11 13:22:33;;;;;;;;;;;26.30;44.20;;;;;;4998876;28;19920;-63
2022/07/11 13:24:59;;;;;;;;;;;26.30;44.50;;;;;;5002213;28;19909;-63
2022/07/11 13:27:24;;;;;;;;;;;26.30;44.50;;;;;;4998972;28;19941;-62
2022/07/11 13:29:50;;;;;;;;;;;26.30;44.40;;;;;;4998470;28;20078;-64
2022/07/11 13:32:15;;;;;;;;;;;26.30;44.40;;;;;;5000087;28;20012;-63
2022/07/11 13:34:41;;;;;;;;;;;26.30;44.40;;;;;;4997312;28;19913;-63
2022/07/11 13:37:07;;;;;;;;;;;26.30;44.50;;;;;;4995719;28;19932;-63
2022/07/11 13:39:33;;;;;;;;;;;26.30;44.60;;;;;;5001277;28;19979;-63
2022/07/11 13:41:58;;;;;;;;;;;26.30;44.50;;;;;;5000987;28;20628;-64
2022/07/11 13:44:24;;;;;;;;;;;26.30;44.40;;;;;;5001573;28;19912;-62
2022/07/11 13:46:49;;;;;;;;;;;26.30;44.50;;;;;;4997070;28;19913;-62
2022/07/11 13:49:15;;;;;;;;;;;26.30;44.40;;;;;;4995093;28;19916;-62
2022/07/11 13:51:40;;;;;;;;;;;26.30;44.40;;;;;;4999417;28;20567;-62
2022/07/11 13:54:06;;;;;;;;;;;26.40;44.40;;;;;;5002951;28;20892;-63
2022/07/11 13:56:31;;;;;;;;;;;26.30;44.30;;;;;;5000076;28;19913;-62
2022/07/11 13:58:57;;;;;;;;;;;26.40;44.30;;;;;;5000696;28;20549;-63
2022/07/11 14:01:22;;;;;;;;;;;26.30;44.40;;;;;;5001937;28;19920;-61
2022/07/11 14:03:48;;;;;;;;;;;26.40;44.40;;;;;;4998386;28;19963;-62
2022/07/11 14:06:13;;;;;;;;;;;26.40;44.30;;;;;;4998246;28;19913;-62
2022/07/11 14:08:39;;;;;;;;;;;26.40;44.20;;;;;;4996868;28;19916;-62
2022/07/11 14:11:04;;;;;;;;;;;26.40;44.30;;;;;;5000115;28;19913;-62
2022/07/11 14:13:30;;;;;;;;;;;26.40;44.20;;;;;;5001401;28;20666;-61
2022/07/11 14:15:56;;;;;;;;;;;26.40;44.20;;;;;;5001031;28;19913;-61
2022/07/11 14:18:21;;;;;;;;;;;26.40;44.30;;;;;;4995617;28;20686;-63
2022/07/11 14:20:47;;;;;;;;;;;26.40;44.30;;;;;;4999753;28;20047;-62
2022/07/11 14:23:12;;;;;;;;;;;26.40;44.40;;;;;;4997634;28;19952;-63
2022/07/11 14:25:40;;;;;;;;;;;26.40;44.60;;;;;;4999296;28;20824;-62